Terminal Aerodrome Forecast
Issued by NWS

Home | Current Version | Previous Version | Text Only | Print | Product List | Glossary On
Versions: 1 2 3 4 5 6 7 8 9 10 11 12 13 14 15 16 17 18 19 20 21 22 23 24 25 26 27
000
FTUS41 KBOX 131120
TAFFMH
TAF
KFMH 131120Z 1312/1412 23007KT P6SM SKC
     FM131530 20014G25KT P6SM SCT110
     FM140000 19014G22KT P6SM BKN060
     FM140400 20013G22KT 3SM BR BKN050
     FM140900 21012G20KT 1SM BR OVC025=

USA.gov is the U.S. government's official web portal to all federal, state and local government web resources and services.